Terminal Aerodrome Forecast
Issued by NWS Mobile, AL

Home | Current Version | Previous Version | Text Only | Print | Product List | Glossary On
Versions: 1 2 3 4 5 6 7 8 9 10 11 12 13 14 15 16 17 18 19 20 21 22 23 24 25 26
000
FTUS44 KMOB 181800 RRA
TAFPNS
TAF
KPNS 181807Z 1818/1918 15006KT P6SM FEW040
     FM190000 VRB02KT P6SM FEW040 BKN180
     FM190900 01002KT P6SM OVC250
     FM191500 10005KT P6SM FEW250=

USA.gov is the U.S. government's official web portal to all federal, state and local government web resources and services.